sensor_id;sensor_type;location;lat;lon;timestamp;temperature;humidity
66328;DHT22;53133;52.862;6.602;2022-12-18T00:00:41;-0.70;99.90
66328;DHT22;53133;52.862;6.602;2022-12-18T00:03:07;-0.70;99.90
66328;DHT22;53133;52.862;6.602;2022-12-18T00:05:33;-0.80;99.90
66328;DHT22;53133;52.862;6.602;2022-12-18T00:07:58;-0.80;99.90
66328;DHT22;53133;52.862;6.602;2022-12-18T00:10:24;-0.80;99.90
66328;DHT22;53133;52.862;6.602;2022-12-18T00:12:50;-0.80;99.90
66328;DHT22;53133;52.862;6.602;2022-12-18T00:15:15;-0.80;99.90
66328;DHT22;53133;52.862;6.602;2022-12-18T00:17:41;-0.80;99.90
66328;DHT22;53133;52.862;6.602;2022-12-18T00:20:07;-0.80;99.90
66328;DHT22;53133;52.862;6.602;2022-12-18T00:22:33;-0.80;99.90
66328;DHT22;53133;52.862;6.602;2022-12-18T00:24:58;-0.80;99.90
66328;DHT22;53133;52.862;6.602;2022-12-18T00:27:24;-0.80;99.90
66328;DHT22;53133;52.862;6.602;2022-12-18T00:29:50;-0.80;99.90
66328;DHT22;53133;52.862;6.602;2022-12-18T00:32:15;-0.80;99.90
66328;DHT22;53133;52.862;6.602;2022-12-18T00:34:41;-0.80;99.90
66328;DHT22;53133;52.862;6.602;2022-12-18T00:37:06;-0.90;99.90
66328;DHT22;53133;52.862;6.602;2022-12-18T00:39:32;-0.90;99.90
66328;DHT22;53133;52.862;6.602;2022-12-18T00:41:57;-0.90;99.90
66328;DHT22;53133;52.862;6.602;2022-12-18T00:44:42;-1.00;99.90
66328;DHT22;53133;52.862;6.602;2022-12-18T00:47:07;-1.00;99.90
66328;DHT22;53133;52.862;6.602;2022-12-18T00:49:33;-0.90;99.90
66328;DHT22;53133;52.862;6.602;2022-12-18T00:51:58;-0.90;99.90
66328;DHT22;53133;52.862;6.602;2022-12-18T00:54:24;-0.90;99.90
66328;DHT22;53133;52.862;6.602;2022-12-18T00:56:50;-0.90;99.90
66328;DHT22;53133;52.862;6.602;2022-12-18T00:59:17;-0.90;99.90
66328;DHT22;53133;52.862;6.602;2022-12-18T01:01:43;-0.90;99.90
66328;DHT22;53133;52.862;6.602;2022-12-18T01:04:08;-0.90;99.90
66328;DHT22;53133;52.862;6.602;2022-12-18T01:06:34;-0.90;99.90
66328;DHT22;53133;52.862;6.602;2022-12-18T01:08:59;-0.90;99.90
66328;DHT22;53133;52.862;6.602;2022-12-18T01:11:25;-0.80;99.90
66328;DHT22;53133;52.862;6.602;2022-12-18T01:13:53;-0.80;99.90
66328;DHT22;53133;52.862;6.602;2022-12-18T01:16:18;-0.90;99.90
66328;DHT22;53133;52.862;6.602;2022-12-18T01:18:44;-0.90;99.90
66328;DHT22;53133;52.862;6.602;2022-12-18T01:21:14;-0.90;99.90
66328;DHT22;53133;52.862;6.602;2022-12-18T01:23:39;-0.90;99.90
66328;DHT22;53133;52.862;6.602;2022-12-18T01:26:07;-1.00;99.90
66328;DHT22;53133;52.862;6.602;2022-12-18T01:28:32;-1.00;99.90
66328;DHT22;53133;52.862;6.602;2022-12-18T01:31:31;-1.00;99.90
66328;DHT22;53133;52.862;6.602;2022-12-18T01:33:57;-1.00;99.90
66328;DHT22;53133;52.862;6.602;2022-12-18T01:36:31;-1.00;99.90
66328;DHT22;53133;52.862;6.602;2022-12-18T01:39:00;-1.00;99.90
66328;DHT22;53133;52.862;6.602;2022-12-18T01:41:27;-1.10;99.90
66328;DHT22;53133;52.862;6.602;2022-12-18T01:47:23;-1.20;99.90
66328;DHT22;53133;52.862;6.602;2022-12-18T01:49:50;-1.30;99.90
66328;DHT22;53133;52.862;6.602;2022-12-18T01:52:17;-1.30;99.90
66328;DHT22;53133;52.862;6.602;2022-12-18T01:54:44;-1.30;99.90
66328;DHT22;53133;52.862;6.602;2022-12-18T01:57:10;-1.40;99.90
66328;DHT22;53133;52.862;6.602;2022-12-18T01:59:36;-1.40;99.90
66328;DHT22;53133;52.862;6.602;2022-12-18T02:02:03;-1.50;99.90
66328;DHT22;53133;52.862;6.602;2022-12-18T02:04:29;-1.50;99.90
66328;DHT22;53133;52.862;6.602;2022-12-18T02:07:14;-1.60;99.90
66328;DHT22;53133;52.862;6.602;2022-12-18T02:12:30;-1.60;99.90
66328;DHT22;53133;52.862;6.602;2022-12-18T02:15:06;-1.60;99.90
66328;DHT22;53133;52.862;6.602;2022-12-18T02:17:40;-1.70;99.90
66328;DHT22;53133;52.862;6.602;2022-12-18T02:20:45;-1.70;99.90
66328;DHT22;53133;52.862;6.602;2022-12-18T02:26:15;-1.80;99.90
66328;DHT22;53133;52.862;6.602;2022-12-18T02:29:13;-1.80;99.90
66328;DHT22;53133;52.862;6.602;2022-12-18T02:31:45;-1.80;99.90
66328;DHT22;53133;52.862;6.602;2022-12-18T02:34:13;-1.80;99.90
66328;DHT22;53133;52.862;6.602;2022-12-18T02:36:41;-1.80;99.90
66328;DHT22;53133;52.862;6.602;2022-12-18T02:39:10;-1.80;99.90
66328;DHT22;53133;52.862;6.602;2022-12-18T02:41:37;-1.80;99.90
66328;DHT22;53133;52.862;6.602;2022-12-18T02:44:11;-1.80;99.90
66328;DHT22;53133;52.862;6.602;2022-12-18T02:46:49;-1.90;99.90
66328;DHT22;53133;52.862;6.602;2022-12-18T02:55:08;-1.90;99.90
66328;DHT22;53133;52.862;6.602;2022-12-18T02:57:58;-2.00;99.90
66328;DHT22;53133;52.862;6.602;2022-12-18T03:03:31;-2.00;99.90
66328;DHT22;53133;52.862;6.602;2022-12-18T03:06:03;-2.00;99.90
66328;DHT22;53133;52.862;6.602;2022-12-18T03:08:33;-2.00;99.90
66328;DHT22;53133;52.862;6.602;2022-12-18T03:11:03;-2.00;99.90
66328;DHT22;53133;52.862;6.602;2022-12-18T03:13:36;-2.00;99.90
66328;DHT22;53133;52.862;6.602;2022-12-18T03:16:03;-2.00;99.90
66328;DHT22;53133;52.862;6.602;2022-12-18T03:18:45;-2.10;99.90
66328;DHT22;53133;52.862;6.602;2022-12-18T03:21:12;-2.10;99.90
66328;DHT22;53133;52.862;6.602;2022-12-18T03:23:47;-2.20;99.90
66328;DHT22;53133;52.862;6.602;2022-12-18T03:26:16;-2.20;99.90
66328;DHT22;53133;52.862;6.602;2022-12-18T03:28:51;-2.20;99.90
66328;DHT22;53133;52.862;6.602;2022-12-18T03:31:21;-2.20;99.90
66328;DHT22;53133;52.862;6.602;2022-12-18T03:33:53;-2.30;99.90
66328;DHT22;53133;52.862;6.602;2022-12-18T03:36:19;-2.30;99.90
66328;DHT22;53133;52.862;6.602;2022-12-18T03:38:45;-2.20;99.90
66328;DHT22;53133;52.862;6.602;2022-12-18T03:41:34;-2.30;99.90
66328;DHT22;53133;52.862;6.602;2022-12-18T03:44:21;-2.30;99.90
66328;DHT22;53133;52.862;6.602;2022-12-18T03:52:10;-2.30;99.90
66328;DHT22;53133;52.862;6.602;2022-12-18T03:54:37;-2.40;99.90
66328;DHT22;53133;52.862;6.602;2022-12-18T03:57:25;-2.30;99.90
66328;DHT22;53133;52.862;6.602;2022-12-18T03:59:56;-2.30;99.90
66328;DHT22;53133;52.862;6.602;2022-12-18T04:02:23;-2.30;99.90
66328;DHT22;53133;52.862;6.602;2022-12-18T04:04:52;-2.40;99.90
66328;DHT22;53133;52.862;6.602;2022-12-18T04:07:19;-2.40;99.90
66328;DHT22;53133;52.862;6.602;2022-12-18T04:09:47;-2.40;99.90
66328;DHT22;53133;52.862;6.602;2022-12-18T04:12:13;-2.40;99.90
66328;DHT22;53133;52.862;6.602;2022-12-18T04:14:39;-2.40;99.90
66328;DHT22;53133;52.862;6.602;2022-12-18T04:17:05;-2.40;99.90
66328;DHT22;53133;52.862;6.602;2022-12-18T04:19:30;-2.40;99.90
66328;DHT22;53133;52.862;6.602;2022-12-18T04:21:56;-2.40;99.90
66328;DHT22;53133;52.862;6.602;2022-12-18T04:24:24;-2.40;99.90
66328;DHT22;53133;52.862;6.602;2022-12-18T04:26:50;-2.40;99.90
66328;DHT22;53133;52.862;6.602;2022-12-18T04:29:18;-2.40;99.90
66328;DHT22;53133;52.862;6.602;2022-12-18T04:31:44;-2.40;99.90
66328;DHT22;53133;52.862;6.602;2022-12-18T04:34:09;-2.40;99.90
66328;DHT22;53133;52.862;6.602;2022-12-18T04:36:35;-2.40;99.90
66328;DHT22;53133;52.862;6.602;2022-12-18T04:39:00;-2.50;99.90
66328;DHT22;53133;52.862;6.602;2022-12-18T04:41:26;-2.50;99.90
66328;DHT22;53133;52.862;6.602;2022-12-18T04:43:52;-2.50;99.90
66328;DHT22;53133;52.862;6.602;2022-12-18T04:46:17;-2.50;99.90
66328;DHT22;53133;52.862;6.602;2022-12-18T04:48:45;-2.50;99.90
66328;DHT22;53133;52.862;6.602;2022-12-18T04:51:12;-2.50;99.90
66328;DHT22;53133;52.862;6.602;2022-12-18T04:53:37;-2.50;99.90
66328;DHT22;53133;52.862;6.602;2022-12-18T04:56:10;-2.50;99.90
66328;DHT22;53133;52.862;6.602;2022-12-18T04:58:37;-2.50;99.90
66328;DHT22;53133;52.862;6.602;2022-12-18T05:01:04;-2.60;99.90
66328;DHT22;53133;52.862;6.602;2022-12-18T05:03:30;-2.60;99.90
66328;DHT22;53133;52.862;6.602;2022-12-18T05:05:56;-2.60;99.90
66328;DHT22;53133;52.862;6.602;2022-12-18T05:08:22;-2.60;99.90
66328;DHT22;53133;52.862;6.602;2022-12-18T05:10:48;-2.60;99.90
66328;DHT22;53133;52.862;6.602;2022-12-18T05:13:14;-2.60;99.90
66328;DHT22;53133;52.862;6.602;2022-12-18T05:15:39;-2.60;99.90
66328;DHT22;53133;52.862;6.602;2022-12-18T05:18:05;-2.60;99.90
66328;DHT22;53133;52.862;6.602;2022-12-18T05:20:31;-2.60;99.90
66328;DHT22;53133;52.862;6.602;2022-12-18T05:22:56;-2.60;99.90
66328;DHT22;53133;52.862;6.602;2022-12-18T05:25:23;-2.60;99.90
66328;DHT22;53133;52.862;6.602;2022-12-18T05:27:49;-2.70;99.90
66328;DHT22;53133;52.862;6.602;2022-12-18T05:30:15;-2.70;99.90
66328;DHT22;53133;52.862;6.602;2022-12-18T05:32:42;-2.70;99.90
66328;DHT22;53133;52.862;6.602;2022-12-18T05:35:09;-2.70;99.90
66328;DHT22;53133;52.862;6.602;2022-12-18T05:37:36;-2.70;99.90
66328;DHT22;53133;52.862;6.602;2022-12-18T05:40:03;-2.80;99.90
66328;DHT22;53133;52.862;6.602;2022-12-18T05:42:29;-2.80;99.90
66328;DHT22;53133;52.862;6.602;2022-12-18T05:44:54;-2.80;99.90
66328;DHT22;53133;52.862;6.602;2022-12-18T05:47:20;-2.90;99.90
66328;DHT22;53133;52.862;6.602;2022-12-18T05:49:45;-2.90;99.90
66328;DHT22;53133;52.862;6.602;2022-12-18T05:52:11;-3.00;99.90
66328;DHT22;53133;52.862;6.602;2022-12-18T05:54:37;-3.00;99.90
66328;DHT22;53133;52.862;6.602;2022-12-18T05:57:02;-3.00;99.90
66328;DHT22;53133;52.862;6.602;2022-12-18T05:59:28;-3.00;99.90
66328;DHT22;53133;52.862;6.602;2022-12-18T06:01:53;-3.10;99.90
66328;DHT22;53133;52.862;6.602;2022-12-18T06:04:19;-3.10;99.90
66328;DHT22;53133;52.862;6.602;2022-12-18T06:06:44;-3.20;99.90
66328;DHT22;53133;52.862;6.602;2022-12-18T06:09:10;-3.20;99.90
66328;DHT22;53133;52.862;6.602;2022-12-18T06:11:37;-3.20;99.90
66328;DHT22;53133;52.862;6.602;2022-12-18T06:14:04;-3.20;99.90
66328;DHT22;53133;52.862;6.602;2022-12-18T06:16:31;-3.20;99.90
66328;DHT22;53133;52.862;6.602;2022-12-18T06:18:57;-3.20;99.90
66328;DHT22;53133;52.862;6.602;2022-12-18T06:21:23;-3.20;99.90
66328;DHT22;53133;52.862;6.602;2022-12-18T06:23:52;-3.30;99.90
66328;DHT22;53133;52.862;6.602;2022-12-18T06:26:18;-3.30;99.90
66328;DHT22;53133;52.862;6.602;2022-12-18T06:28:44;-3.30;99.90
66328;DHT22;53133;52.862;6.602;2022-12-18T06:31:10;-3.30;99.90
66328;DHT22;53133;52.862;6.602;2022-12-18T06:33:36;-3.30;99.90
66328;DHT22;53133;52.862;6.602;2022-12-18T06:36:07;-3.30;99.90
66328;DHT22;53133;52.862;6.602;2022-12-18T06:38:35;-3.30;99.90
66328;DHT22;53133;52.862;6.602;2022-12-18T06:41:13;-3.30;99.90
66328;DHT22;53133;52.862;6.602;2022-12-18T06:43:39;-3.30;99.90
66328;DHT22;53133;52.862;6.602;2022-12-18T06:46:05;-3.40;99.90
66328;DHT22;53133;52.862;6.602;2022-12-18T06:48:31;-3.30;99.90
66328;DHT22;53133;52.862;6.602;2022-12-18T06:50:57;-3.30;99.90
66328;DHT22;53133;52.862;6.602;2022-12-18T06:53:23;-3.40;99.90
66328;DHT22;53133;52.862;6.602;2022-12-18T06:55:49;-3.40;99.90
66328;DHT22;53133;52.862;6.602;2022-12-18T06:58:14;-3.40;99.90
66328;DHT22;53133;52.862;6.602;2022-12-18T07:00:40;-3.50;99.90
66328;DHT22;53133;52.862;6.602;2022-12-18T07:03:06;-3.50;99.90
66328;DHT22;53133;52.862;6.602;2022-12-18T07:05:32;-3.60;99.90
66328;DHT22;53133;52.862;6.602;2022-12-18T07:07:58;-3.60;99.90
66328;DHT22;53133;52.862;6.602;2022-12-18T07:10:23;-3.70;99.90
66328;DHT22;53133;52.862;6.602;2022-12-18T07:12:49;-3.70;99.90
66328;DHT22;53133;52.862;6.602;2022-12-18T07:15:14;-3.70;99.90
66328;DHT22;53133;52.862;6.602;2022-12-18T07:17:40;-3.60;99.90
66328;DHT22;53133;52.862;6.602;2022-12-18T07:20:06;-3.60;99.90
66328;DHT22;53133;52.862;6.602;2022-12-18T07:22:32;-3.60;99.90
66328;DHT22;53133;52.862;6.602;2022-12-18T07:24:57;-3.60;99.90
66328;DHT22;53133;52.862;6.602;2022-12-18T07:27:24;-3.60;99.90
66328;DHT22;53133;52.862;6.602;2022-12-18T07:29:49;-3.60;99.90
66328;DHT22;53133;52.862;6.602;2022-12-18T07:32:15;-3.60;99.90
66328;DHT22;53133;52.862;6.602;2022-12-18T07:34:40;-3.60;99.90
66328;DHT22;53133;52.862;6.602;2022-12-18T07:37:06;-3.60;99.90
66328;DHT22;53133;52.862;6.602;2022-12-18T07:39:32;-3.60;99.90
66328;DHT22;53133;52.862;6.602;2022-12-18T07:41:57;-3.60;99.90
66328;DHT22;53133;52.862;6.602;2022-12-18T07:44:42;-3.60;99.90
66328;DHT22;53133;52.862;6.602;2022-12-18T07:47:07;-3.50;99.90
66328;DHT22;53133;52.862;6.602;2022-12-18T07:49:33;-3.50;99.90
66328;DHT22;53133;52.862;6.602;2022-12-18T07:51:58;-3.50;99.90
66328;DHT22;53133;52.862;6.602;2022-12-18T07:54:25;-3.50;99.90
66328;DHT22;53133;52.862;6.602;2022-12-18T07:56:51;-3.50;99.90
66328;DHT22;53133;52.862;6.602;2022-12-18T07:59:17;-3.50;99.90
66328;DHT22;53133;52.862;6.602;2022-12-18T08:01:43;-3.40;99.90
66328;DHT22;53133;52.862;6.602;2022-12-18T08:04:08;-3.40;99.90
66328;DHT22;53133;52.862;6.602;2022-12-18T08:06:34;-3.40;99.90
66328;DHT22;53133;52.862;6.602;2022-12-18T08:09:00;-3.40;99.90
66328;DHT22;53133;52.862;6.602;2022-12-18T08:11:27;-3.40;99.90
66328;DHT22;53133;52.862;6.602;2022-12-18T08:13:53;-3.30;99.90
66328;DHT22;53133;52.862;6.602;2022-12-18T08:16:20;-3.30;99.90
66328;DHT22;53133;52.862;6.602;2022-12-18T08:18:46;-3.30;99.90
66328;DHT22;53133;52.862;6.602;2022-12-18T08:21:20;-3.20;99.90
66328;DHT22;53133;52.862;6.602;2022-12-18T08:23:48;-3.20;99.90
66328;DHT22;53133;52.862;6.602;2022-12-18T08:26:14;-3.20;99.90
66328;DHT22;53133;52.862;6.602;2022-12-18T08:28:40;-3.10;99.90
66328;DHT22;53133;52.862;6.602;2022-12-18T08:31:06;-3.10;99.90
66328;DHT22;53133;52.862;6.602;2022-12-18T08:33:33;-3.10;99.90
66328;DHT22;53133;52.862;6.602;2022-12-18T08:35:59;-3.10;99.90
66328;DHT22;53133;52.862;6.602;2022-12-18T08:38:25;-3.00;99.90
66328;DHT22;53133;52.862;6.602;2022-12-18T08:41:06;-2.90;99.90
66328;DHT22;53133;52.862;6.602;2022-12-18T08:43:33;-2.90;99.90
66328;DHT22;53133;52.862;6.602;2022-12-18T08:46:18;-2.80;99.90
66328;DHT22;53133;52.862;6.602;2022-12-18T08:48:44;-2.80;99.90
66328;DHT22;53133;52.862;6.602;2022-12-18T08:51:10;-2.70;99.90
66328;DHT22;53133;52.862;6.602;2022-12-18T08:53:36;-2.70;99.90
66328;DHT22;53133;52.862;6.602;2022-12-18T08:56:03;-2.70;99.90
66328;DHT22;53133;52.862;6.602;2022-12-18T08:58:29;-2.60;99.90
66328;DHT22;53133;52.862;6.602;2022-12-18T09:01:00;-2.60;99.90
66328;DHT22;53133;52.862;6.602;2022-12-18T09:03:26;-2.60;99.90
66328;DHT22;53133;52.862;6.602;2022-12-18T09:05:51;-2.60;99.90
66328;DHT22;53133;52.862;6.602;2022-12-18T09:08:17;-2.50;99.90
66328;DHT22;53133;52.862;6.602;2022-12-18T09:10:47;-2.40;99.90
66328;DHT22;53133;52.862;6.602;2022-12-18T09:13:14;-2.40;99.90
66328;DHT22;53133;52.862;6.602;2022-12-18T09:15:45;-2.40;99.90
66328;DHT22;53133;52.862;6.602;2022-12-18T09:18:12;-2.30;99.90
66328;DHT22;53133;52.862;6.602;2022-12-18T09:20:38;-2.30;99.90
66328;DHT22;53133;52.862;6.602;2022-12-18T09:23:05;-2.20;99.90
66328;DHT22;53133;52.862;6.602;2022-12-18T09:25:31;-2.20;99.90
66328;DHT22;53133;52.862;6.602;2022-12-18T09:27:59;-2.20;99.90
66328;DHT22;53133;52.862;6.602;2022-12-18T09:30:25;-2.10;99.90
66328;DHT22;53133;52.862;6.602;2022-12-18T09:32:51;-2.10;99.90
66328;DHT22;53133;52.862;6.602;2022-12-18T09:35:20;-2.00;99.90
66328;DHT22;53133;52.862;6.602;2022-12-18T09:37:45;-2.00;99.90
66328;DHT22;53133;52.862;6.602;2022-12-18T09:40:16;-2.00;99.90
66328;DHT22;53133;52.862;6.602;2022-12-18T09:42:47;-1.90;99.90
66328;DHT22;53133;52.862;6.602;2022-12-18T09:45:15;-1.80;99.90
66328;DHT22;53133;52.862;6.602;2022-12-18T09:47:43;-1.80;99.90
66328;DHT22;53133;52.862;6.602;2022-12-18T09:50:30;-1.80;99.90
66328;DHT22;53133;52.862;6.602;2022-12-18T09:52:59;-1.70;99.90
66328;DHT22;53133;52.862;6.602;2022-12-18T09:55:34;-1.70;99.90
66328;DHT22;53133;52.862;6.602;2022-12-18T09:58:16;-1.60;99.90
66328;DHT22;53133;52.862;6.602;2022-12-18T10:00:43;-1.50;99.90
66328;DHT22;53133;52.862;6.602;2022-12-18T10:03:10;-1.50;99.90
66328;DHT22;53133;52.862;6.602;2022-12-18T10:05:57;-1.50;99.90
66328;DHT22;53133;52.862;6.602;2022-12-18T10:24:41;-1.30;99.90
66328;DHT22;53133;52.862;6.602;2022-12-18T10:27:23;-1.30;99.90
66328;DHT22;53133;52.862;6.602;2022-12-18T10:29:53;-1.30;99.90
66328;DHT22;53133;52.862;6.602;2022-12-18T10:32:28;-1.30;99.90
66328;DHT22;53133;52.862;6.602;2022-12-18T10:34:56;-1.30;99.90
66328;DHT22;53133;52.862;6.602;2022-12-18T10:37:25;-1.30;99.90
66328;DHT22;53133;52.862;6.602;2022-12-18T10:40:14;-1.30;99.90
66328;DHT22;53133;52.862;6.602;2022-12-18T10:42:40;-1.30;99.90
66328;DHT22;53133;52.862;6.602;2022-12-18T10:45:16;-1.20;99.90
66328;DHT22;53133;52.862;6.602;2022-12-18T10:47:47;-1.20;99.90
66328;DHT22;53133;52.862;6.602;2022-12-18T10:50:27;-1.20;99.90
66328;DHT22;53133;52.862;6.602;2022-12-18T10:53:04;-1.10;99.90
66328;DHT22;53133;52.862;6.602;2022-12-18T10:55:38;-1.10;99.90
66328;DHT22;53133;52.862;6.602;2022-12-18T11:03:37;-1.00;99.90
66328;DHT22;53133;52.862;6.602;2022-12-18T11:06:07;-0.90;99.90
66328;DHT22;53133;52.862;6.602;2022-12-18T11:08:34;-0.90;99.90
66328;DHT22;53133;52.862;6.602;2022-12-18T11:11:00;-0.80;99.90
66328;DHT22;53133;52.862;6.602;2022-12-18T11:13:27;-0.80;99.90
66328;DHT22;53133;52.862;6.602;2022-12-18T11:15:54;-0.80;99.90
66328;DHT22;53133;52.862;6.602;2022-12-18T11:18:27;-0.70;99.90
66328;DHT22;53133;52.862;6.602;2022-12-18T11:21:10;-0.70;99.90
66328;DHT22;53133;52.862;6.602;2022-12-18T11:23:37;-0.60;99.90
66328;DHT22;53133;52.862;6.602;2022-12-18T11:26:08;-0.60;99.90
66328;DHT22;53133;52.862;6.602;2022-12-18T11:31:21;-0.50;99.90
66328;DHT22;53133;52.862;6.602;2022-12-18T11:33:58;-0.50;99.90
66328;DHT22;53133;52.862;6.602;2022-12-18T11:36:29;-0.40;99.90
66328;DHT22;53133;52.862;6.602;2022-12-18T11:39:00;-0.40;99.90
66328;DHT22;53133;52.862;6.602;2022-12-18T11:41:32;-0.40;99.90
66328;DHT22;53133;52.862;6.602;2022-12-18T11:45:00;-0.40;99.90
66328;DHT22;53133;52.862;6.602;2022-12-18T11:47:42;-0.40;99.90
66328;DHT22;53133;52.862;6.602;2022-12-18T11:50:16;-0.40;99.90
66328;DHT22;53133;52.862;6.602;2022-12-18T11:52:42;-0.40;99.90
66328;DHT22;53133;52.862;6.602;2022-12-18T11:55:16;-0.30;99.90
66328;DHT22;53133;52.862;6.602;2022-12-18T12:00:54;-0.30;99.90
66328;DHT22;53133;52.862;6.602;2022-12-18T12:06:10;-0.20;99.90
66328;DHT22;53133;52.862;6.602;2022-12-18T12:08:58;-0.10;99.90
66328;DHT22;53133;52.862;6.602;2022-12-18T12:11:46;-0.10;99.90
66328;DHT22;53133;52.862;6.602;2022-12-18T12:17:02;-0.10;99.90
66328;DHT22;53133;52.862;6.602;2022-12-18T12:22:39;-0.10;99.90
66328;DHT22;53133;52.862;6.602;2022-12-18T12:31:07;0.00;99.90
66328;DHT22;53133;52.862;6.602;2022-12-18T12:33:50;0.00;99.90
66328;DHT22;53133;52.862;6.602;2022-12-18T12:39:18;0.00;99.90
66328;DHT22;53133;52.862;6.602;2022-12-18T12:41:46;0.00;99.90
66328;DHT22;53133;52.862;6.602;2022-12-18T12:44:39;0.00;99.90
66328;DHT22;53133;52.862;6.602;2022-12-18T12:47:20;0.10;99.90
66328;DHT22;53133;52.862;6.602;2022-12-18T12:49:47;0.10;99.90
66328;DHT22;53133;52.862;6.602;2022-12-18T12:52:40;0.10;99.90
66328;DHT22;53133;52.862;6.602;2022-12-18T12:55:17;0.10;99.90
66328;DHT22;53133;52.862;6.602;2022-12-18T13:00:51;0.20;99.90
66328;DHT22;53133;52.862;6.602;2022-12-18T13:06:02;0.20;99.90
66328;DHT22;53133;52.862;6.602;2022-12-18T13:08:32;0.20;99.90
66328;DHT22;53133;52.862;6.602;2022-12-18T13:10:59;0.20;99.90
66328;DHT22;53133;52.862;6.602;2022-12-18T13:14:03;0.20;99.90
66328;DHT22;53133;52.862;6.602;2022-12-18T13:16:29;0.30;99.90
66328;DHT22;53133;52.862;6.602;2022-12-18T13:18:56;0.30;99.90
66328;DHT22;53133;52.862;6.602;2022-12-18T13:21:32;0.30;99.90
66328;DHT22;53133;52.862;6.602;2022-12-18T13:26:48;0.30;99.90
66328;DHT22;53133;52.862;6.602;2022-12-18T13:29:40;0.30;99.90
66328;DHT22;53133;52.862;6.602;2022-12-18T13:32:19;0.40;99.90
66328;DHT22;53133;52.862;6.602;2022-12-18T13:34:45;0.30;99.90
66328;DHT22;53133;52.862;6.602;2022-12-18T13:37:39;0.30;99.90
66328;DHT22;53133;52.862;6.602;2022-12-18T13:45:59;0.40;99.90
66328;DHT22;53133;52.862;6.602;2022-12-18T13:48:27;0.40;99.90
66328;DHT22;53133;52.862;6.602;2022-12-18T13:51:05;0.40;99.90
66328;DHT22;53133;52.862;6.602;2022-12-18T13:53:51;0.40;99.90
66328;DHT22;53133;52.862;6.602;2022-12-18T13:56:20;0.40;99.90
66328;DHT22;53133;52.862;6.602;2022-12-18T13:58:47;0.40;99.90
66328;DHT22;53133;52.862;6.602;2022-12-18T14:01:28;0.30;99.90
66328;DHT22;53133;52.862;6.602;2022-12-18T14:04:09;0.30;99.90
66328;DHT22;53133;52.862;6.602;2022-12-18T14:06:35;0.30;99.90
66328;DHT22;53133;52.862;6.602;2022-12-18T14:09:02;0.30;99.90
66328;DHT22;53133;52.862;6.602;2022-12-18T14:11:28;0.30;99.90
66328;DHT22;53133;52.862;6.602;2022-12-18T14:13:54;0.20;99.90
66328;DHT22;53133;52.862;6.602;2022-12-18T14:16:20;0.20;99.90
66328;DHT22;53133;52.862;6.602;2022-12-18T14:18:54;0.20;99.90
66328;DHT22;53133;52.862;6.602;2022-12-18T14:21:27;0.20;99.90
66328;DHT22;53133;52.862;6.602;2022-12-18T14:24:15;0.20;99.90
66328;DHT22;53133;52.862;6.602;2022-12-18T14:26:42;0.20;99.90
66328;DHT22;53133;52.862;6.602;2022-12-18T14:29:26;0.20;99.90
66328;DHT22;53133;52.862;6.602;2022-12-18T14:32:15;0.20;99.90
66328;DHT22;53133;52.862;6.602;2022-12-18T14:34:52;0.20;99.90
66328;DHT22;53133;52.862;6.602;2022-12-18T14:37:24;0.20;99.90
66328;DHT22;53133;52.862;6.602;2022-12-18T14:42:23;0.10;99.90
66328;DHT22;53133;52.862;6.602;2022-12-18T14:47:58;0.20;99.90
66328;DHT22;53133;52.862;6.602;2022-12-18T14:50:24;0.10;99.90
66328;DHT22;53133;52.862;6.602;2022-12-18T14:52:50;0.10;99.90
66328;DHT22;53133;52.862;6.602;2022-12-18T14:55:20;0.10;99.90
66328;DHT22;53133;52.862;6.602;2022-12-18T14:57:50;0.10;99.90
66328;DHT22;53133;52.862;6.602;2022-12-18T15:00:19;0.10;99.90
66328;DHT22;53133;52.862;6.602;2022-12-18T15:02:47;0.10;99.90
66328;DHT22;53133;52.862;6.602;2022-12-18T15:05:24;0.10;99.90
66328;DHT22;53133;52.862;6.602;2022-12-18T15:07:52;0.00;99.90
66328;DHT22;53133;52.862;6.602;2022-12-18T15:10:30;0.00;99.90
66328;DHT22;53133;52.862;6.602;2022-12-18T15:15:52;0.00;99.90
66328;DHT22;53133;52.862;6.602;2022-12-18T15:18:20;0.00;99.90
66328;DHT22;53133;52.862;6.602;2022-12-18T15:20:53;0.00;99.90
66328;DHT22;53133;52.862;6.602;2022-12-18T15:26:24;0.00;99.90
66328;DHT22;53133;52.862;6.602;2022-12-18T15:28:56;0.00;99.90
66328;DHT22;53133;52.862;6.602;2022-12-18T15:36:19;0.00;99.90
66328;DHT22;53133;52.862;6.602;2022-12-18T15:38:49;-0.10;99.90
66328;DHT22;53133;52.862;6.602;2022-12-18T15:41:19;0.00;99.90
66328;DHT22;53133;52.862;6.602;2022-12-18T15:43:47;0.00;99.90
66328;DHT22;53133;52.862;6.602;2022-12-18T15:46:21;0.00;99.90
66328;DHT22;53133;52.862;6.602;2022-12-18T15:48:52;-0.10;99.90
66328;DHT22;53133;52.862;6.602;2022-12-18T15:51:35;-0.10;99.90
66328;DHT22;53133;52.862;6.602;2022-12-18T15:54:04;-0.10;99.90
66328;DHT22;53133;52.862;6.602;2022-12-18T15:56:31;-0.10;99.90
66328;DHT22;53133;52.862;6.602;2022-12-18T15:59:17;-0.10;99.90
66328;DHT22;53133;52.862;6.602;2022-12-18T16:01:46;-0.10;99.90
66328;DHT22;53133;52.862;6.602;2022-12-18T16:04:13;-0.10;99.90
66328;DHT22;53133;52.862;6.602;2022-12-18T16:06:39;-0.10;99.90
66328;DHT22;53133;52.862;6.602;2022-12-18T16:09:05;-0.10;99.90
66328;DHT22;53133;52.862;6.602;2022-12-18T16:11:32;-0.10;99.90
66328;DHT22;53133;52.862;6.602;2022-12-18T16:14:34;-0.10;99.90
66328;DHT22;53133;52.862;6.602;2022-12-18T16:17:03;-0.10;99.90
66328;DHT22;53133;52.862;6.602;2022-12-18T16:19:29;-0.10;99.90
66328;DHT22;53133;52.862;6.602;2022-12-18T16:21:56;-0.10;99.90
66328;DHT22;53133;52.862;6.602;2022-12-18T16:24:25;-0.10;99.90
66328;DHT22;53133;52.862;6.602;2022-12-18T16:26:52;-0.10;99.90
66328;DHT22;53133;52.862;6.602;2022-12-18T16:29:18;-0.10;99.90
66328;DHT22;53133;52.862;6.602;2022-12-18T16:31:44;-0.10;99.90
66328;DHT22;53133;52.862;6.602;2022-12-18T16:34:19;-0.10;99.90
66328;DHT22;53133;52.862;6.602;2022-12-18T16:36:48;-0.10;99.90
66328;DHT22;53133;52.862;6.602;2022-12-18T16:39:14;-0.10;99.90
66328;DHT22;53133;52.862;6.602;2022-12-18T16:41:39;-0.10;99.90
66328;DHT22;53133;52.862;6.602;2022-12-18T16:44:05;0.00;99.90
66328;DHT22;53133;52.862;6.602;2022-12-18T16:46:30;0.00;99.90
66328;DHT22;53133;52.862;6.602;2022-12-18T16:48:58;0.00;99.90
66328;DHT22;53133;52.862;6.602;2022-12-18T16:51:24;0.00;99.90
66328;DHT22;53133;52.862;6.602;2022-12-18T16:53:49;0.00;99.90
66328;DHT22;53133;52.862;6.602;2022-12-18T16:56:15;0.10;99.90
66328;DHT22;53133;52.862;6.602;2022-12-18T16:58:41;0.10;99.90
66328;DHT22;53133;52.862;6.602;2022-12-18T17:01:08;0.10;99.90
66328;DHT22;53133;52.862;6.602;2022-12-18T17:03:34;0.10;99.90
66328;DHT22;53133;52.862;6.602;2022-12-18T17:06:05;0.10;99.90
66328;DHT22;53133;52.862;6.602;2022-12-18T17:08:31;0.10;99.90
66328;DHT22;53133;52.862;6.602;2022-12-18T17:11:03;0.10;99.90
66328;DHT22;53133;52.862;6.602;2022-12-18T17:13:29;0.20;99.90
66328;DHT22;53133;52.862;6.602;2022-12-18T17:15:54;0.20;99.90
66328;DHT22;53133;52.862;6.602;2022-12-18T17:18:22;0.20;99.90
66328;DHT22;53133;52.862;6.602;2022-12-18T17:20:47;0.20;99.90
66328;DHT22;53133;52.862;6.602;2022-12-18T17:23:13;0.20;99.90
66328;DHT22;53133;52.862;6.602;2022-12-18T17:25:39;0.20;99.90
66328;DHT22;53133;52.862;6.602;2022-12-18T17:28:05;0.30;99.90
66328;DHT22;53133;52.862;6.602;2022-12-18T17:30:30;0.30;99.90